Terminal Aerodrome Forecast
Issued by NWS Raleigh/Durham, NC

Current Version | Previous Version | Text Only | Print | Product List | Glossary On
Versions: 1 2 3 4 5 6 7 8 9 10 11 12 13 14 15 16 17 18 19 20 21 22 23 24 25 26 27 28 29 30 31 32 33 34 35 36 37 38 39 40 41 42 43
000 FTUS42 KRAH 291738 TAFGSO TAF KGSO 291738Z 2918/3018 27007KT P6SM SCT050 FM300100 VRB03KT P6SM FEW250 FM300900 05008KT 5SM BR OVC005 FM301500 08008KT P6SM OVC012=

USA.gov is the U.S. government's official web portal to all federal, state and local government web resources and services.